sensor_id;sensor_type;location;lat;lon;timestamp;temperature;humidity
3860;DHT22;1945;52.036;8.614;2023-03-04T00:01:19;4.40;1.00
3860;DHT22;1945;52.036;8.614;2023-03-04T00:03:46;4.40;1.00
3860;DHT22;1945;52.036;8.614;2023-03-04T00:06:13;5.00;1.00
3860;DHT22;1945;52.036;8.614;2023-03-04T00:08:39;4.40;1.00
3860;DHT22;1945;52.036;8.614;2023-03-04T00:11:06;4.50;1.00
3860;DHT22;1945;52.036;8.614;2023-03-04T00:13:34;4.50;1.00
3860;DHT22;1945;52.036;8.614;2023-03-04T00:16:01;4.50;1.00
3860;DHT22;1945;52.036;8.614;2023-03-04T00:18:27;4.50;1.00
3860;DHT22;1945;52.036;8.614;2023-03-04T00:20:54;4.50;1.00
3860;DHT22;1945;52.036;8.614;2023-03-04T00:23:21;4.60;1.00
3860;DHT22;1945;52.036;8.614;2023-03-04T00:25:47;4.50;1.00
3860;DHT22;1945;52.036;8.614;2023-03-04T00:28:14;4.50;1.00
3860;DHT22;1945;52.036;8.614;2023-03-04T00:30:42;4.50;1.00
3860;DHT22;1945;52.036;8.614;2023-03-04T00:33:09;4.50;1.00
3860;DHT22;1945;52.036;8.614;2023-03-04T00:35:35;4.50;1.00
3860;DHT22;1945;52.036;8.614;2023-03-04T00:38:02;4.50;1.00
3860;DHT22;1945;52.036;8.614;2023-03-04T00:40:29;4.50;1.00
3860;DHT22;1945;52.036;8.614;2023-03-04T00:42:55;4.50;1.00
3860;DHT22;1945;52.036;8.614;2023-03-04T00:45:22;4.50;1.00
3860;DHT22;1945;52.036;8.614;2023-03-04T00:47:50;4.50;1.00
3860;DHT22;1945;52.036;8.614;2023-03-04T00:50:17;4.50;1.00
3860;DHT22;1945;52.036;8.614;2023-03-04T00:52:43;4.50;1.00
3860;DHT22;1945;52.036;8.614;2023-03-04T00:55:10;4.50;1.00
3860;DHT22;1945;52.036;8.614;2023-03-04T00:57:37;4.50;1.00
3860;DHT22;1945;52.036;8.614;2023-03-04T01:00:05;5.00;1.00
3860;DHT22;1945;52.036;8.614;2023-03-04T01:02:32;4.50;1.00
3860;DHT22;1945;52.036;8.614;2023-03-04T01:05:00;4.50;1.00
3860;DHT22;1945;52.036;8.614;2023-03-04T01:07:26;4.50;1.00
3860;DHT22;1945;52.036;8.614;2023-03-04T01:09:53;4.50;1.00
3860;DHT22;1945;52.036;8.614;2023-03-04T01:12:19;4.50;1.00
3860;DHT22;1945;52.036;8.614;2023-03-04T01:14:46;4.50;1.00
3860;DHT22;1945;52.036;8.614;2023-03-04T01:17:13;4.50;1.00
3860;DHT22;1945;52.036;8.614;2023-03-04T01:19:39;4.50;1.00
3860;DHT22;1945;52.036;8.614;2023-03-04T01:22:07;4.50;1.00
3860;DHT22;1945;52.036;8.614;2023-03-04T01:24:35;4.60;1.00
3860;DHT22;1945;52.036;8.614;2023-03-04T01:27:02;4.50;1.00
3860;DHT22;1945;52.036;8.614;2023-03-04T01:29:28;4.60;1.00
3860;DHT22;1945;52.036;8.614;2023-03-04T01:31:55;4.60;1.00
3860;DHT22;1945;52.036;8.614;2023-03-04T01:34:22;4.60;1.00
3860;DHT22;1945;52.036;8.614;2023-03-04T01:36:48;4.60;1.00
3860;DHT22;1945;52.036;8.614;2023-03-04T01:39:16;4.60;1.00
3860;DHT22;1945;52.036;8.614;2023-03-04T01:41:43;4.60;1.00
3860;DHT22;1945;52.036;8.614;2023-03-04T01:44:10;5.10;1.00
3860;DHT22;1945;52.036;8.614;2023-03-04T01:46:39;4.50;1.00
3860;DHT22;1945;52.036;8.614;2023-03-04T01:49:08;4.60;1.00
3860;DHT22;1945;52.036;8.614;2023-03-04T01:51:37;4.50;1.00
3860;DHT22;1945;52.036;8.614;2023-03-04T01:54:04;4.70;1.00
3860;DHT22;1945;52.036;8.614;2023-03-04T01:56:34;4.60;1.00
3860;DHT22;1945;52.036;8.614;2023-03-04T01:59:07;4.50;1.00
3860;DHT22;1945;52.036;8.614;2023-03-04T02:01:34;4.60;1.00
3860;DHT22;1945;52.036;8.614;2023-03-04T02:04:01;5.00;1.00
3860;DHT22;1945;52.036;8.614;2023-03-04T02:06:28;4.50;1.00
3860;DHT22;1945;52.036;8.614;2023-03-04T02:08:55;4.50;1.00
3860;DHT22;1945;52.036;8.614;2023-03-04T02:11:23;4.50;1.00
3860;DHT22;1945;52.036;8.614;2023-03-04T02:13:51;4.50;1.00
3860;DHT22;1945;52.036;8.614;2023-03-04T02:16:18;5.10;1.00
3860;DHT22;1945;52.036;8.614;2023-03-04T02:18:44;4.50;1.00
3860;DHT22;1945;52.036;8.614;2023-03-04T02:21:14;4.90;1.00
3860;DHT22;1945;52.036;8.614;2023-03-04T02:23:46;4.60;1.00
3860;DHT22;1945;52.036;8.614;2023-03-04T02:26:17;4.60;1.00
3860;DHT22;1945;52.036;8.614;2023-03-04T02:28:46;4.60;1.00
3860;DHT22;1945;52.036;8.614;2023-03-04T02:31:22;4.50;1.00
3860;DHT22;1945;52.036;8.614;2023-03-04T02:33:50;4.50;1.00
3860;DHT22;1945;52.036;8.614;2023-03-04T02:36:17;4.50;1.00
3860;DHT22;1945;52.036;8.614;2023-03-04T02:38:44;4.50;1.00
3860;DHT22;1945;52.036;8.614;2023-03-04T02:41:12;4.60;1.00
3860;DHT22;1945;52.036;8.614;2023-03-04T02:43:42;4.60;1.00
3860;DHT22;1945;52.036;8.614;2023-03-04T02:46:11;4.60;1.00
3860;DHT22;1945;52.036;8.614;2023-03-04T02:48:38;4.50;1.00
3860;DHT22;1945;52.036;8.614;2023-03-04T02:51:05;4.60;1.00
3860;DHT22;1945;52.036;8.614;2023-03-04T02:53:32;5.10;1.00
3860;DHT22;1945;52.036;8.614;2023-03-04T02:55:59;4.50;1.00
3860;DHT22;1945;52.036;8.614;2023-03-04T02:58:28;4.50;1.00
3860;DHT22;1945;52.036;8.614;2023-03-04T03:00:57;4.50;1.00
3860;DHT22;1945;52.036;8.614;2023-03-04T03:03:24;4.50;1.00
3860;DHT22;1945;52.036;8.614;2023-03-04T03:05:52;4.50;1.00
3860;DHT22;1945;52.036;8.614;2023-03-04T03:08:19;4.50;1.00
3860;DHT22;1945;52.036;8.614;2023-03-04T03:10:46;4.50;1.00
3860;DHT22;1945;52.036;8.614;2023-03-04T03:13:12;4.50;1.00
3860;DHT22;1945;52.036;8.614;2023-03-04T03:15:39;4.50;1.00
3860;DHT22;1945;52.036;8.614;2023-03-04T03:18:08;4.50;1.00
3860;DHT22;1945;52.036;8.614;2023-03-04T03:20:35;4.50;1.00
3860;DHT22;1945;52.036;8.614;2023-03-04T03:23:02;5.10;1.00
3860;DHT22;1945;52.036;8.614;2023-03-04T03:25:28;4.50;1.00
3860;DHT22;1945;52.036;8.614;2023-03-04T03:27:55;4.60;1.00
3860;DHT22;1945;52.036;8.614;2023-03-04T03:30:22;4.50;1.00
3860;DHT22;1945;52.036;8.614;2023-03-04T03:32:48;5.10;1.00
3860;DHT22;1945;52.036;8.614;2023-03-04T03:35:17;4.50;1.00
3860;DHT22;1945;52.036;8.614;2023-03-04T03:37:43;4.60;1.00
3860;DHT22;1945;52.036;8.614;2023-03-04T03:40:11;4.60;1.00
3860;DHT22;1945;52.036;8.614;2023-03-04T03:42:38;4.50;1.00
3860;DHT22;1945;52.036;8.614;2023-03-04T03:45:06;4.60;1.00
3860;DHT22;1945;52.036;8.614;2023-03-04T03:47:32;4.60;1.00
3860;DHT22;1945;52.036;8.614;2023-03-04T03:49:59;4.50;1.00
3860;DHT22;1945;52.036;8.614;2023-03-04T03:52:27;4.60;1.00
3860;DHT22;1945;52.036;8.614;2023-03-04T03:54:54;4.60;1.00
3860;DHT22;1945;52.036;8.614;2023-03-04T03:57:20;4.60;1.00
3860;DHT22;1945;52.036;8.614;2023-03-04T03:59:47;4.60;1.00
3860;DHT22;1945;52.036;8.614;2023-03-04T04:02:14;4.60;1.00
3860;DHT22;1945;52.036;8.614;2023-03-04T04:04:40;4.60;1.00
3860;DHT22;1945;52.036;8.614;2023-03-04T04:07:07;4.60;1.00
3860;DHT22;1945;52.036;8.614;2023-03-04T04:09:35;4.60;1.00
3860;DHT22;1945;52.036;8.614;2023-03-04T04:12:03;4.60;1.00
3860;DHT22;1945;52.036;8.614;2023-03-04T04:14:30;4.60;1.00
3860;DHT22;1945;52.036;8.614;2023-03-04T04:16:57;4.60;1.00
3860;DHT22;1945;52.036;8.614;2023-03-04T04:19:24;4.60;1.00
3860;DHT22;1945;52.036;8.614;2023-03-04T04:21:50;4.60;1.00
3860;DHT22;1945;52.036;8.614;2023-03-04T04:24:18;4.60;1.00
3860;DHT22;1945;52.036;8.614;2023-03-04T04:26:46;4.60;1.00
3860;DHT22;1945;52.036;8.614;2023-03-04T04:29:13;4.60;1.00
3860;DHT22;1945;52.036;8.614;2023-03-04T04:31:40;4.60;1.00
3860;DHT22;1945;52.036;8.614;2023-03-04T04:34:07;4.60;1.00
3860;DHT22;1945;52.036;8.614;2023-03-04T04:36:34;4.60;1.00
3860;DHT22;1945;52.036;8.614;2023-03-04T04:39:01;4.60;1.00
3860;DHT22;1945;52.036;8.614;2023-03-04T04:41:35;4.60;1.00
3860;DHT22;1945;52.036;8.614;2023-03-04T04:44:04;4.60;1.00
3860;DHT22;1945;52.036;8.614;2023-03-04T04:46:31;4.60;1.00
3860;DHT22;1945;52.036;8.614;2023-03-04T04:48:58;4.60;1.00
3860;DHT22;1945;52.036;8.614;2023-03-04T04:51:24;4.60;1.00
3860;DHT22;1945;52.036;8.614;2023-03-04T04:53:51;4.60;1.00
3860;DHT22;1945;52.036;8.614;2023-03-04T04:56:20;4.60;1.00
3860;DHT22;1945;52.036;8.614;2023-03-04T04:58:47;4.60;1.00
3860;DHT22;1945;52.036;8.614;2023-03-04T05:01:15;4.60;1.00
3860;DHT22;1945;52.036;8.614;2023-03-04T05:03:42;4.60;1.00
3860;DHT22;1945;52.036;8.614;2023-03-04T05:06:10;4.60;1.00
3860;DHT22;1945;52.036;8.614;2023-03-04T05:08:37;4.60;1.00
3860;DHT22;1945;52.036;8.614;2023-03-04T05:11:05;4.60;1.00
3860;DHT22;1945;52.036;8.614;2023-03-04T05:13:32;4.60;1.00
3860;DHT22;1945;52.036;8.614;2023-03-04T05:15:59;4.60;1.00
3860;DHT22;1945;52.036;8.614;2023-03-04T05:18:28;4.60;1.00
3860;DHT22;1945;52.036;8.614;2023-03-04T05:20:56;4.60;1.00
3860;DHT22;1945;52.036;8.614;2023-03-04T05:23:25;5.20;1.00
3860;DHT22;1945;52.036;8.614;2023-03-04T05:25:53;4.90;1.00
3860;DHT22;1945;52.036;8.614;2023-03-04T05:28:20;4.60;1.00
3860;DHT22;1945;52.036;8.614;2023-03-04T05:30:47;4.60;1.00
3860;DHT22;1945;52.036;8.614;2023-03-04T05:33:15;4.60;1.00
3860;DHT22;1945;52.036;8.614;2023-03-04T05:35:44;4.60;1.00
3860;DHT22;1945;52.036;8.614;2023-03-04T05:38:14;4.60;1.00
3860;DHT22;1945;52.036;8.614;2023-03-04T05:40:41;4.60;1.00
3860;DHT22;1945;52.036;8.614;2023-03-04T05:43:08;4.60;1.00
3860;DHT22;1945;52.036;8.614;2023-03-04T05:45:36;4.60;1.00
3860;DHT22;1945;52.036;8.614;2023-03-04T05:48:03;4.60;1.00
3860;DHT22;1945;52.036;8.614;2023-03-04T05:50:30;4.60;1.00
3860;DHT22;1945;52.036;8.614;2023-03-04T05:52:58;4.60;1.00
3860;DHT22;1945;52.036;8.614;2023-03-04T05:55:25;4.60;1.00
3860;DHT22;1945;52.036;8.614;2023-03-04T05:57:54;4.60;1.00
3860;DHT22;1945;52.036;8.614;2023-03-04T06:00:21;4.90;41.50
3860;DHT22;1945;52.036;8.614;2023-03-04T06:02:47;4.50;99.90
3860;DHT22;1945;52.036;8.614;2023-03-04T06:05:15;4.50;99.90
3860;DHT22;1945;52.036;8.614;2023-03-04T06:07:42;4.50;99.90
3860;DHT22;1945;52.036;8.614;2023-03-04T06:10:12;4.40;99.90
3860;DHT22;1945;52.036;8.614;2023-03-04T06:12:40;4.40;99.90
3860;DHT22;1945;52.036;8.614;2023-03-04T06:15:07;4.40;99.90
3860;DHT22;1945;52.036;8.614;2023-03-04T06:17:36;4.40;99.90
3860;DHT22;1945;52.036;8.614;2023-03-04T06:20:03;4.30;99.90
3860;DHT22;1945;52.036;8.614;2023-03-04T06:22:30;4.40;99.90
3860;DHT22;1945;52.036;8.614;2023-03-04T06:24:57;4.70;1.00
3860;DHT22;1945;52.036;8.614;2023-03-04T06:27:25;4.30;1.00
3860;DHT22;1945;52.036;8.614;2023-03-04T06:29:52;4.40;1.00
3860;DHT22;1945;52.036;8.614;2023-03-04T06:32:19;4.30;1.00
3860;DHT22;1945;52.036;8.614;2023-03-04T06:34:46;4.40;1.00
3860;DHT22;1945;52.036;8.614;2023-03-04T06:37:12;4.40;1.00
3860;DHT22;1945;52.036;8.614;2023-03-04T06:39:39;4.40;1.00
3860;DHT22;1945;52.036;8.614;2023-03-04T06:42:06;4.30;1.00
3860;DHT22;1945;52.036;8.614;2023-03-04T06:44:34;4.30;1.00
3860;DHT22;1945;52.036;8.614;2023-03-04T06:47:00;4.30;1.00
3860;DHT22;1945;52.036;8.614;2023-03-04T06:49:30;4.90;1.00
3860;DHT22;1945;52.036;8.614;2023-03-04T06:51:57;3.90;1.00
3860;DHT22;1945;52.036;8.614;2023-03-04T06:54:23;4.00;1.00
3860;DHT22;1945;52.036;8.614;2023-03-04T06:56:50;4.40;99.90
3860;DHT22;1945;52.036;8.614;2023-03-04T06:59:17;4.40;99.90
3860;DHT22;1945;52.036;8.614;2023-03-04T07:01:45;4.50;99.90
3860;DHT22;1945;52.036;8.614;2023-03-04T07:04:12;4.50;99.90
3860;DHT22;1945;52.036;8.614;2023-03-04T07:06:39;4.60;99.90
3860;DHT22;1945;52.036;8.614;2023-03-04T07:09:06;4.60;99.90
3860;DHT22;1945;52.036;8.614;2023-03-04T07:11:33;4.60;99.90
3860;DHT22;1945;52.036;8.614;2023-03-04T07:13:59;4.60;99.90
3860;DHT22;1945;52.036;8.614;2023-03-04T07:16:26;4.70;99.90
3860;DHT22;1945;52.036;8.614;2023-03-04T07:18:54;4.70;99.90
3860;DHT22;1945;52.036;8.614;2023-03-04T07:21:21;4.60;99.90
3860;DHT22;1945;52.036;8.614;2023-03-04T07:23:48;4.80;99.90
3860;DHT22;1945;52.036;8.614;2023-03-04T07:26:15;4.80;99.90
3860;DHT22;1945;52.036;8.614;2023-03-04T07:28:42;4.90;99.90
3860;DHT22;1945;52.036;8.614;2023-03-04T07:31:10;4.90;99.90
3860;DHT22;1945;52.036;8.614;2023-03-04T07:33:37;4.90;99.90
3860;DHT22;1945;52.036;8.614;2023-03-04T07:36:06;5.00;99.90
3860;DHT22;1945;52.036;8.614;2023-03-04T07:38:33;4.90;99.90
3860;DHT22;1945;52.036;8.614;2023-03-04T07:40:59;4.90;99.90
3860;DHT22;1945;52.036;8.614;2023-03-04T07:43:26;4.70;99.90
3860;DHT22;1945;52.036;8.614;2023-03-04T07:45:58;5.00;99.90
3860;DHT22;1945;52.036;8.614;2023-03-04T07:48:24;5.00;99.90
3860;DHT22;1945;52.036;8.614;2023-03-04T07:51:02;5.00;99.90
3860;DHT22;1945;52.036;8.614;2023-03-04T07:53:30;5.10;99.90
3860;DHT22;1945;52.036;8.614;2023-03-04T07:55:57;5.10;99.90
3860;DHT22;1945;52.036;8.614;2023-03-04T07:58:24;5.10;99.90
3860;DHT22;1945;52.036;8.614;2023-03-04T08:00:51;5.20;99.90
3860;DHT22;1945;52.036;8.614;2023-03-04T08:03:18;5.20;99.90
3860;DHT22;1945;52.036;8.614;2023-03-04T08:05:45;5.20;99.90
3860;DHT22;1945;52.036;8.614;2023-03-04T08:08:11;5.30;99.90
3860;DHT22;1945;52.036;8.614;2023-03-04T08:10:40;5.20;99.90
3860;DHT22;1945;52.036;8.614;2023-03-04T08:13:06;5.30;99.90
3860;DHT22;1945;52.036;8.614;2023-03-04T08:15:33;5.20;99.90
3860;DHT22;1945;52.036;8.614;2023-03-04T08:18:05;5.20;99.90
3860;DHT22;1945;52.036;8.614;2023-03-04T08:20:31;5.20;99.90
3860;DHT22;1945;52.036;8.614;2023-03-04T08:22:58;5.30;99.90
3860;DHT22;1945;52.036;8.614;2023-03-04T08:25:24;5.30;99.90
3860;DHT22;1945;52.036;8.614;2023-03-04T08:27:52;5.20;1.00
3860;DHT22;1945;52.036;8.614;2023-03-04T08:30:19;5.30;1.00
3860;DHT22;1945;52.036;8.614;2023-03-04T08:32:46;5.20;1.00
3860;DHT22;1945;52.036;8.614;2023-03-04T08:35:13;5.30;1.00
3860;DHT22;1945;52.036;8.614;2023-03-04T08:37:39;5.30;1.00
3860;DHT22;1945;52.036;8.614;2023-03-04T08:40:07;5.40;1.00
3860;DHT22;1945;52.036;8.614;2023-03-04T08:42:34;5.40;1.00
3860;DHT22;1945;52.036;8.614;2023-03-04T08:45:02;5.40;1.00
3860;DHT22;1945;52.036;8.614;2023-03-04T08:47:29;5.50;1.00
3860;DHT22;1945;52.036;8.614;2023-03-04T08:49:56;5.30;1.00
3860;DHT22;1945;52.036;8.614;2023-03-04T08:52:23;5.70;1.00
3860;DHT22;1945;52.036;8.614;2023-03-04T08:54:50;5.70;1.00
3860;DHT22;1945;52.036;8.614;2023-03-04T08:57:16;5.70;99.90
3860;DHT22;1945;52.036;8.614;2023-03-04T08:59:43;5.70;99.90
3860;DHT22;1945;52.036;8.614;2023-03-04T09:02:11;5.80;99.90
3860;DHT22;1945;52.036;8.614;2023-03-04T09:04:38;5.90;99.90
3860;DHT22;1945;52.036;8.614;2023-03-04T09:07:04;6.30;99.90
3860;DHT22;1945;52.036;8.614;2023-03-04T09:09:32;5.80;99.90
3860;DHT22;1945;52.036;8.614;2023-03-04T09:11:59;5.70;99.90
3860;DHT22;1945;52.036;8.614;2023-03-04T09:14:25;5.80;99.90
3860;DHT22;1945;52.036;8.614;2023-03-04T09:16:52;5.80;99.90
3860;DHT22;1945;52.036;8.614;2023-03-04T09:19:20;5.80;99.90
3860;DHT22;1945;52.036;8.614;2023-03-04T09:21:47;5.80;1.00
3860;DHT22;1945;52.036;8.614;2023-03-04T09:24:14;5.70;99.90
3860;DHT22;1945;52.036;8.614;2023-03-04T09:26:40;5.80;1.00
3860;DHT22;1945;52.036;8.614;2023-03-04T09:29:08;6.20;1.00
3860;DHT22;1945;52.036;8.614;2023-03-04T09:31:35;5.80;1.00
3860;DHT22;1945;52.036;8.614;2023-03-04T09:34:02;5.90;1.00
3860;DHT22;1945;52.036;8.614;2023-03-04T09:36:30;5.80;99.90
3860;DHT22;1945;52.036;8.614;2023-03-04T09:38:58;5.50;99.90
3860;DHT22;1945;52.036;8.614;2023-03-04T09:41:30;5.70;1.00
3860;DHT22;1945;52.036;8.614;2023-03-04T09:44:03;5.70;1.00
3860;DHT22;1945;52.036;8.614;2023-03-04T09:46:36;5.80;99.90
3860;DHT22;1945;52.036;8.614;2023-03-04T09:49:04;5.90;1.00
3860;DHT22;1945;52.036;8.614;2023-03-04T09:51:43;6.10;99.90
3860;DHT22;1945;52.036;8.614;2023-03-04T09:54:15;6.10;99.90
3860;DHT22;1945;52.036;8.614;2023-03-04T09:56:43;6.10;99.90
3860;DHT22;1945;52.036;8.614;2023-03-04T09:59:16;6.00;99.90
3860;DHT22;1945;52.036;8.614;2023-03-04T10:01:50;6.00;1.00
3860;DHT22;1945;52.036;8.614;2023-03-04T10:04:28;6.00;99.90
3860;DHT22;1945;52.036;8.614;2023-03-04T10:06:57;6.10;1.00
3860;DHT22;1945;52.036;8.614;2023-03-04T10:09:28;6.20;99.90
3860;DHT22;1945;52.036;8.614;2023-03-04T10:12:01;6.20;99.90
3860;DHT22;1945;52.036;8.614;2023-03-04T10:14:36;6.30;1.00
3860;DHT22;1945;52.036;8.614;2023-03-04T10:17:07;6.30;99.90
3860;DHT22;1945;52.036;8.614;2023-03-04T10:19:46;6.40;1.00
3860;DHT22;1945;52.036;8.614;2023-03-04T10:22:19;6.40;99.90
3860;DHT22;1945;52.036;8.614;2023-03-04T10:24:47;6.50;1.00
3860;DHT22;1945;52.036;8.614;2023-03-04T10:27:17;6.40;1.00
3860;DHT22;1945;52.036;8.614;2023-03-04T10:29:44;6.40;1.00
3860;DHT22;1945;52.036;8.614;2023-03-04T10:32:13;6.30;1.00
3860;DHT22;1945;52.036;8.614;2023-03-04T10:34:41;6.20;1.00
3860;DHT22;1945;52.036;8.614;2023-03-04T10:37:09;6.20;1.00
3860;DHT22;1945;52.036;8.614;2023-03-04T10:39:39;6.10;1.00
3860;DHT22;1945;52.036;8.614;2023-03-04T10:42:22;6.10;1.00
3860;DHT22;1945;52.036;8.614;2023-03-04T10:44:52;6.20;1.00
3860;DHT22;1945;52.036;8.614;2023-03-04T10:47:22;6.30;1.00
3860;DHT22;1945;52.036;8.614;2023-03-04T10:49:50;6.30;1.00
3860;DHT22;1945;52.036;8.614;2023-03-04T10:52:26;6.30;1.00
3860;DHT22;1945;52.036;8.614;2023-03-04T10:54:56;6.40;1.00
3860;DHT22;1945;52.036;8.614;2023-03-04T10:57:33;6.90;1.00
3860;DHT22;1945;52.036;8.614;2023-03-04T11:00:02;6.40;1.00
3860;DHT22;1945;52.036;8.614;2023-03-04T11:02:35;6.40;1.00
3860;DHT22;1945;52.036;8.614;2023-03-04T11:05:15;6.30;1.00
3860;DHT22;1945;52.036;8.614;2023-03-04T11:07:44;6.40;1.00
3860;DHT22;1945;52.036;8.614;2023-03-04T11:10:17;6.50;1.00
3860;DHT22;1945;52.036;8.614;2023-03-04T11:12:48;6.70;1.00
3860;DHT22;1945;52.036;8.614;2023-03-04T11:15:20;6.90;1.00
3860;DHT22;1945;52.036;8.614;2023-03-04T11:17:51;6.90;1.00
3860;DHT22;1945;52.036;8.614;2023-03-04T11:20:27;7.50;1.00
3860;DHT22;1945;52.036;8.614;2023-03-04T11:22:56;7.50;1.00
3860;DHT22;1945;52.036;8.614;2023-03-04T11:25:28;7.10;1.00
3860;DHT22;1945;52.036;8.614;2023-03-04T11:27:59;7.00;99.90
3860;DHT22;1945;52.036;8.614;2023-03-04T11:30:38;6.90;99.90
3860;DHT22;1945;52.036;8.614;2023-03-04T11:33:17;6.80;99.90
3860;DHT22;1945;52.036;8.614;2023-03-04T11:35:52;6.70;99.90
3860;DHT22;1945;52.036;8.614;2023-03-04T11:38:27;6.70;99.90
3860;DHT22;1945;52.036;8.614;2023-03-04T11:40:59;6.60;99.90
3860;DHT22;1945;52.036;8.614;2023-03-04T11:43:31;6.60;99.90
3860;DHT22;1945;52.036;8.614;2023-03-04T11:46:23;6.70;99.90
3860;DHT22;1945;52.036;8.614;2023-03-04T11:49:06;6.70;99.90
3860;DHT22;1945;52.036;8.614;2023-03-04T11:51:36;6.70;99.90
3860;DHT22;1945;52.036;8.614;2023-03-04T11:54:16;6.60;1.00
3860;DHT22;1945;52.036;8.614;2023-03-04T11:56:49;6.50;1.00
3860;DHT22;1945;52.036;8.614;2023-03-04T11:59:40;6.50;1.00
3860;DHT22;1945;52.036;8.614;2023-03-04T12:02:14;6.70;1.00
3860;DHT22;1945;52.036;8.614;2023-03-04T12:05:14;6.80;22.90
3860;DHT22;1945;52.036;8.614;2023-03-04T12:07:54;6.90;14.10
3860;DHT22;1945;52.036;8.614;2023-03-04T12:10:27;7.20;99.90
3860;DHT22;1945;52.036;8.614;2023-03-04T12:13:21;7.20;1.00
3860;DHT22;1945;52.036;8.614;2023-03-04T12:15:58;7.20;1.00
3860;DHT22;1945;52.036;8.614;2023-03-04T12:18:39;7.20;1.00
3860;DHT22;1945;52.036;8.614;2023-03-04T12:21:14;7.20;1.00
3860;DHT22;1945;52.036;8.614;2023-03-04T12:24:04;7.80;1.00
3860;DHT22;1945;52.036;8.614;2023-03-04T12:26:38;7.20;1.00
3860;DHT22;1945;52.036;8.614;2023-03-04T12:29:12;7.40;1.00
3860;DHT22;1945;52.036;8.614;2023-03-04T12:31:41;7.50;1.00
3860;DHT22;1945;52.036;8.614;2023-03-04T12:34:29;7.60;1.00
3860;DHT22;1945;52.036;8.614;2023-03-04T12:37:20;7.70;1.00
3860;DHT22;1945;52.036;8.614;2023-03-04T12:40:03;7.80;99.90
3860;DHT22;1945;52.036;8.614;2023-03-04T12:42:38;7.80;99.90
3860;DHT22;1945;52.036;8.614;2023-03-04T12:45:16;7.50;99.90
3860;DHT22;1945;52.036;8.614;2023-03-04T12:47:51;7.70;95.90
3860;DHT22;1945;52.036;8.614;2023-03-04T12:50:31;7.70;99.90
3860;DHT22;1945;52.036;8.614;2023-03-04T12:53:11;7.60;99.90
3860;DHT22;1945;52.036;8.614;2023-03-04T12:55:43;7.50;99.90
3860;DHT22;1945;52.036;8.614;2023-03-04T12:58:15;7.50;99.90
3860;DHT22;1945;52.036;8.614;2023-03-04T13:00:50;7.60;99.90
3860;DHT22;1945;52.036;8.614;2023-03-04T13:03:24;7.60;99.90
3860;DHT22;1945;52.036;8.614;2023-03-04T13:06:12;7.60;99.90
3860;DHT22;1945;52.036;8.614;2023-03-04T13:08:52;7.70;99.90
3860;DHT22;1945;52.036;8.614;2023-03-04T13:11:41;7.80;99.90
3860;DHT22;1945;52.036;8.614;2023-03-04T13:14:26;7.80;99.90
3860;DHT22;1945;52.036;8.614;2023-03-04T13:16:55;7.80;68.00
3860;DHT22;1945;52.036;8.614;2023-03-04T13:19:43;7.80;74.20
3860;DHT22;1945;52.036;8.614;2023-03-04T13:22:31;8.00;99.90
3860;DHT22;1945;52.036;8.614;2023-03-04T13:25:02;7.90;99.90
3860;DHT22;1945;52.036;8.614;2023-03-04T13:27:50;7.70;8.90
3860;DHT22;1945;52.036;8.614;2023-03-04T13:30:39;7.50;96.10
3860;DHT22;1945;52.036;8.614;2023-03-04T13:33:57;7.40;99.90
3860;DHT22;1945;52.036;8.614;2023-03-04T13:36:57;7.20;99.90
3860;DHT22;1945;52.036;8.614;2023-03-04T13:39:29;7.10;99.90
3860;DHT22;1945;52.036;8.614;2023-03-04T13:41:57;7.20;99.90
3860;DHT22;1945;52.036;8.614;2023-03-04T13:47:42;7.10;53.80
3860;DHT22;1945;52.036;8.614;2023-03-04T13:56:23;7.20;1.00
3860;DHT22;1945;52.036;8.614;2023-03-04T13:59:00;7.30;37.60
3860;DHT22;1945;52.036;8.614;2023-03-04T14:01:29;7.10;1.00
3860;DHT22;1945;52.036;8.614;2023-03-04T14:03:56;7.00;1.00
3860;DHT22;1945;52.036;8.614;2023-03-04T14:06:26;7.10;41.00
3860;DHT22;1945;52.036;8.614;2023-03-04T14:08:53;7.10;1.00
3860;DHT22;1945;52.036;8.614;2023-03-04T14:11:28;7.30;99.90
3860;DHT22;1945;52.036;8.614;2023-03-04T14:14:01;7.40;96.30
3860;DHT22;1945;52.036;8.614;2023-03-04T14:16:32;7.40;23.10
3860;DHT22;1945;52.036;8.614;2023-03-04T14:19:03;7.30;20.50
3860;DHT22;1945;52.036;8.614;2023-03-04T14:21:32;7.50;92.10
3860;DHT22;1945;52.036;8.614;2023-03-04T14:24:03;7.90;99.90
3860;DHT22;1945;52.036;8.614;2023-03-04T14:26:30;7.40;99.90
3860;DHT22;1945;52.036;8.614;2023-03-04T14:28:58;7.40;17.40
3860;DHT22;1945;52.036;8.614;2023-03-04T14:31:29;7.00;73.70
3860;DHT22;1945;52.036;8.614;2023-03-04T14:33:59;7.50;2.70
3860;DHT22;1945;52.036;8.614;2023-03-04T14:36:29;7.50;8.40
3860;DHT22;1945;52.036;8.614;2023-03-04T14:38:59;7.40;9.20
3860;DHT22;1945;52.036;8.614;2023-03-04T14:41:29;7.40;1.00
3860;DHT22;1945;52.036;8.614;2023-03-04T14:44:02;7.30;1.00
3860;DHT22;1945;52.036;8.614;2023-03-04T14:46:33;7.20;1.00
3860;DHT22;1945;52.036;8.614;2023-03-04T14:49:01;7.60;1.00
3860;DHT22;1945;52.036;8.614;2023-03-04T14:51:32;7.30;1.00
3860;DHT22;1945;52.036;8.614;2023-03-04T14:54:00;7.30;1.00
3860;DHT22;1945;52.036;8.614;2023-03-04T14:56:27;7.20;1.00
3860;DHT22;1945;52.036;8.614;2023-03-04T14:58:56;7.30;1.00
3860;DHT22;1945;52.036;8.614;2023-03-04T15:01:28;7.30;1.00
3860;DHT22;1945;52.036;8.614;2023-03-04T15:03:58;7.20;1.00
3860;DHT22;1945;52.036;8.614;2023-03-04T15:06:26;7.30;1.00
3860;DHT22;1945;52.036;8.614;2023-03-04T15:08:56;7.30;1.00
3860;DHT22;1945;52.036;8.614;2023-03-04T15:11:26;7.30;1.00
3860;DHT22;1945;52.036;8.614;2023-03-04T15:13:55;7.30;1.00
3860;DHT22;1945;52.036;8.614;2023-03-04T15:16:23;7.60;1.00
3860;DHT22;1945;52.036;8.614;2023-03-04T15:18:56;7.10;1.00
3860;DHT22;1945;52.036;8.614;2023-03-04T15:21:44;7.10;1.00
3860;DHT22;1945;52.036;8.614;2023-03-04T15:24:11;7.30;1.00
3860;DHT22;1945;52.036;8.614;2023-03-04T15:26:42;7.00;1.00
3860;DHT22;1945;52.036;8.614;2023-03-04T15:29:13;6.90;99.90
3860;DHT22;1945;52.036;8.614;2023-03-04T15:31:41;7.10;99.90
3860;DHT22;1945;52.036;8.614;2023-03-04T15:34:11;6.40;99.90
3860;DHT22;1945;52.036;8.614;2023-03-04T15:36:39;6.50;99.90
3860;DHT22;1945;52.036;8.614;2023-03-04T15:39:10;6.50;99.90
3860;DHT22;1945;52.036;8.614;2023-03-04T15:41:37;6.50;99.90
3860;DHT22;1945;52.036;8.614;2023-03-04T15:44:06;6.50;99.90
3860;DHT22;1945;52.036;8.614;2023-03-04T15:46:33;6.60;99.90
3860;DHT22;1945;52.036;8.614;2023-03-04T15:48:59;6.70;99.90
3860;DHT22;1945;52.036;8.614;2023-03-04T15:51:26;6.60;99.90
3860;DHT22;1945;52.036;8.614;2023-03-04T15:53:55;6.60;99.90
3860;DHT22;1945;52.036;8.614;2023-03-04T15:56:24;6.50;99.90
3860;DHT22;1945;52.036;8.614;2023-03-04T15:58:53;6.50;99.90
3860;DHT22;1945;52.036;8.614;2023-03-04T16:01:22;6.50;38.20
3860;DHT22;1945;52.036;8.614;2023-03-04T16:03:49;6.50;99.90
3860;DHT22;1945;52.036;8.614;2023-03-04T16:06:18;6.40;99.90
3860;DHT22;1945;52.036;8.614;2023-03-04T16:08:46;6.10;99.90
3860;DHT22;1945;52.036;8.614;2023-03-04T16:11:15;6.20;99.90
3860;DHT22;1945;52.036;8.614;2023-03-04T16:13:41;5.70;99.90
3860;DHT22;1945;52.036;8.614;2023-03-04T16:16:09;5.80;1.00
3860;DHT22;1945;52.036;8.614;2023-03-04T16:18:38;5.70;1.00
3860;DHT22;1945;52.036;8.614;2023-03-04T16:21:05;5.60;1.00
3860;DHT22;1945;52.036;8.614;2023-03-04T16:23:38;5.90;1.00
3860;DHT22;1945;52.036;8.614;2023-03-04T16:26:19;5.50;1.00
3860;DHT22;1945;52.036;8.614;2023-03-04T16:28:46;5.60;1.00
3860;DHT22;1945;52.036;8.614;2023-03-04T16:31:14;5.50;99.90
3860;DHT22;1945;52.036;8.614;2023-03-04T16:33:42;6.00;99.90
3860;DHT22;1945;52.036;8.614;2023-03-04T16:36:13;5.60;1.00
3860;DHT22;1945;52.036;8.614;2023-03-04T16:38:41;5.50;99.90
3860;DHT22;1945;52.036;8.614;2023-03-04T16:41:11;5.50;99.90
3860;DHT22;1945;52.036;8.614;2023-03-04T16:43:38;5.40;99.90
3860;DHT22;1945;52.036;8.614;2023-03-04T16:46:05;5.40;99.90
3860;DHT22;1945;52.036;8.614;2023-03-04T16:48:32;5.40;99.90
3860;DHT22;1945;52.036;8.614;2023-03-04T16:51:02;5.40;99.90
3860;DHT22;1945;52.036;8.614;2023-03-04T16:53:33;5.40;99.90
3860;DHT22;1945;52.036;8.614;2023-03-04T16:56:04;5.40;99.90